Nearby METAR Reports

 

YMEN - Melbourne/Essend, Australia
Distance from station: WNW 96km
Updated: 22/01/2019 21:00
Clear
Clear
 Wind from SSW
Wind: SSW 19 km/h
Temperature: 21°C
Dew Point: 18°C
Humidity: 83%
Barometer: 1012 hPa
Clouds: Clear
Visibility: 10 km
2019/01/22 10:00 YMEN 221000Z AUTO 21010KT 9999 // NCD 21/18 Q1012
YMML - Melbourne Intl A, Australia
Distance from station: WNW 106km
Updated: 22/01/2019 21:30
Clear
Clear
 Wind from SSW
Wind: SSW 13 km/h
Temperature: 21°C
Dew Point: 17°C
Humidity: 78%
Barometer: 1013 hPa
Summary: Clear
Visibility: greater than 10 km
2019/01/22 10:30 YMML 221030Z 20007KT CAVOK 21/17 Q1013 NOSIG
YMAV - Avalon Airport, Australia
Distance from station: W 121km
Updated: 22/01/2019 21:30
Clear
Clear
 Wind from S
Wind: S 9 km/h
Temperature: 19°C
Dew Point: 15°C
Humidity: 78%
Barometer: 1013 hPa
Clouds: Clear
Visibility: 10 km
2019/01/22 10:30 YMAV 221030Z AUTO 18005KT 9999 // NCD 19/15 Q1013 RF00.0/000.0
 
YWGT - Wangaratta Arp, Australia
Distance from station: N 196km
Updated: 22/01/2019 21:00
Clear
Clear
 Wind from WSW
Wind: WSW 7 km/h
Temperature: 33°C
Dew Point: 3°C
Humidity: 15%
Barometer: 1008 hPa
Clouds: Clear
Visibility: 10 km
2019/01/22 10:00 YWGT 221000Z AUTO 25004KT 9999 // NCD 33/03 Q1008
YMAY - Albury Airport, Australia
Distance from station: NNE 250km
Updated: 22/01/2019 21:00
Clear
Clear
 Wind from NE
Wind: NE 11 km/h
Temperature: 31°C
Heat Index: 32°C
Dew Point: 18°C
Humidity: 46%
Barometer: 1008 hPa
Clouds: Clear
Visibility: 10 km
2019/01/22 10:00 YMAY 221000Z AUTO 04006KT 9999 // NCD 31/18 Q1008
YCOM - Cooma Snowy Mtns, Australia
Distance from station: NE 343km
Updated: 22/01/2019 21:11
Overcast
Overcast
 Wind from SSW
Wind: SSW 28 km/h
Temperature: 26°C
Dew Point: 14°C
Humidity: 48%
Barometer: 1016 hPa
Clouds: Overcast
Visibility: 10 km
Cloud details: Overcast 3200 m
2019/01/22 10:11 YCOM 221011Z AUTO 21015KT 9999 // OVC105 26/14 Q1016
 
YSWG - Wagga Wagga(Cv/M, Australia
Distance from station: NNE 364km
Updated: 22/01/2019 21:00
Clear
Clear
 Wind from ESE
Wind: ESE 17 km/h
Temperature: 31°C
Heat Index: 31°C
Dew Point: 16°C
Humidity: 40%
Barometer: 1009 hPa
Clouds: Clear
Visibility: 10 km
2019/01/22 10:00 YSWG 221000Z AUTO 11009KT 9999 // NCD 31/16 Q1009
YMER - Merimbula Arpt, Australia
Distance from station: ENE 382km
Updated: 22/01/2019 21:00
Clear
Clear
 Wind from calm
Wind: Calm
Temperature: 23°C
Dew Point: 21°C
Humidity: 89%
Barometer: 1010 hPa
Clouds: Clear
Visibility: 10 km
2019/01/22 10:00 YMER 221000Z AUTO 00000KT 9999 // NCD 23/21 Q1010
YNAR - Narrandera, Australia
Distance from station: N 388km
Updated: 22/01/2019 21:00

 Wind from E
Wind: E 11 km/h
Temperature: 33°C
Dew Point: 16°C
Humidity: 36%
Barometer: 1008 hPa
2019/01/22 10:00 YNAR 221000Z AUTO 08006KT //// // ////// 33/16 Q1008
 
YMLT - Launceston Airpo, Australia
Distance from station: SSE 392km
Updated: 22/01/2019 21:30
Clear
Clear
 Wind from N
Wind: N 17 km/h
Temperature: 22°C
Dew Point: 11°C
Humidity: 50%
Barometer: 1007 hPa
Clouds: Clear
Visibility: 10 km
2019/01/22 10:30 YMLT 221030Z AUTO 35009KT 9999 // NCD 22/11 Q1007 RF00.0/000.0
YGTH - Griffith Arpt, Australia
Distance from station: N 434km
Updated: 22/01/2019 21:00
Partly cloudy
Partly cloudy
 Wind from ESE
Wind: ESE 17 km/h
Temperature: 32°C
Heat Index: 34°C
Dew Point: 19°C
Humidity: 46%
Barometer: 1007 hPa
Clouds: Partly cloudy
Visibility: 10 km
Cloud details: Partly cloudy 3810 m
2019/01/22 10:00 YGTH 221000Z AUTO 12009KT 9999 // SCT125 32/19 Q1007 RESHRA
YSCB - Canberra (civ/Mi, Australia
Distance from station: NE 434km
Updated: 22/01/2019 21:36
Thunderstorm, Partly cloudy
Thunderstorm, Partly cloudy
 Wind from SE
Wind: SE 9 km/h
Temperature: 28°C
Heat Index: 28°C
Dew Point: 15°C
Humidity: 45%
Barometer: 1013 hPa
Summary: Thunderstorm
Clouds: Partly cloudy
Visibility: 10 km
Cloud details: Partly cloudy 3810 m
2019/01/22 10:36 YSCB 221036Z AUTO 13005KT 9999 TS SCT125 28/15 Q1013 RF00.0/000.0 WX2
 
YMTG - Mount Gambier, Australia
Distance from station: W 447km
Updated: 22/01/2019 21:00
Clear
Clear
 Wind from S
Wind: S 11 km/h
Temperature: 21°C
Dew Point: 13°C
Humidity: 60%
Barometer: 1013 hPa
Clouds: Clear
Visibility: 10 km
2019/01/22 10:00 YMTG 221000Z AUTO 17006KT 9999 // NCD 21/13 Q1013
YMHB - Hobart/Tasmania, Australia
Distance from station: SSE 538km
Updated: 22/01/2019 21:30
Partly cloudy
Partly cloudy
 Wind from S
Wind: S 15 km/h
Temperature: 19°C
Dew Point: 15°C
Humidity: 78%
Barometer: 1008 hPa
Clouds: Partly cloudy
Visibility: 10 km
Cloud details: Few Clouds 914 m
Partly cloudy 3810 m
2019/01/22 10:30 YMHB 221030Z 17008KT 9999 FEW030 SCT125 19/15 Q1008 RF00.0/000.0
YSNW - Nowra (aus-Navy), Australia
Distance from station: NE 547km
Updated: 22/01/2019 21:00
Clear
Clear
 Wind from SSE
Wind: SSE 7 km/h
Temperature: 25°C
Dew Point: 20°C
Humidity: 74%
Barometer: 1010 hPa
Summary: Clear
Visibility: greater than 10 km
2019/01/22 10:00 YSNW 221000Z 16004KT CAVOK 25/20 Q1010 NOSIG
 
YMIA - Mildura Arpt, Australia
Distance from station: NW 551km
Updated: 22/01/2019 21:00
Clear
Clear
 Wind from S
Wind: S 13 km/h
Temperature: 39°C
Dew Point: 7°C
Humidity: 14%
Barometer: 1008 hPa
Clouds: Clear
Visibility: 10 km
2019/01/22 10:00 YMIA 221000Z AUTO 19007KT 9999 // NCD 39/07 Q1008
YSSY - Sydney Intl Airp, Australia
Distance from station: NE 667km
Updated: 22/01/2019 21:30
Clear
Clear
 Wind from NNE
Wind: NNE 28 km/h
Temperature: 26°C
Dew Point: 21°C
Humidity: 74%
Barometer: 1011 hPa
Summary: Clear
Visibility: greater than 10 km
2019/01/22 10:30 YSSY 221030Z 03015KT CAVOK 26/21 Q1011 NOSIG
YSRI - Richmond (aus-Af, Australia
Distance from station: NE 671km
Updated: 22/01/2019 21:30
Clear
Clear
 Wind from ENE
Wind: ENE 13 km/h
Temperature: 27°C
Heat Index: 29°C
Dew Point: 22°C
Humidity: 74%
Barometer: 1011 hPa
Clouds: Clear
Visibility: 10 km
2019/01/22 10:30 YSRI 221030Z AUTO 07007KT 9999 // NCD 27/22 Q1011 RF00.0/000.2 PRESENT WEATHER SENSOR US
 
YSDU - Dubbo, Australia
Distance from station: NNE 704km
Updated: 22/01/2019 21:30
Overcast
Overcast
 Wind from E
Wind: E 11 km/h
Temperature: 30°C
Heat Index: 31°C
Dew Point: 18°C
Humidity: 49%
Barometer: 1010 hPa
Clouds: Overcast
Visibility: 10 km
Cloud details: Overcast 2713 m
2019/01/22 10:30 YSDU 221030Z AUTO 08006KT 9999 // OVC089 30/18 Q1010 RF00.0/000.0
YMDG - Mudgee Arpt, Australia
Distance from station: NNE 708km
Updated: 22/01/2019 21:00
Clear
Clear
 Wind from ENE
Wind: ENE 13 km/h
Temperature: 31°C
Heat Index: 33°C
Dew Point: 19°C
Humidity: 49%
Barometer: 1013 hPa
Clouds: Clear
Visibility: 10 km
2019/01/22 10:00 YMDG 221000Z AUTO 07007KT 9999 // NCD 31/19 Q1013